Estación Meteorológica Peña el Pijo (Robertgarden) [ 05/25/18 12:45:22 CEST ]

Fecha Hora Presion(HPa) Temp (°C) Humedad % Rocio (°C) Viento ( m/s) Direccion Lluvia 1Hora(mm) Lluvia 24H(mm) LLuvia Total(mm)
2018-Mar-04 01:01:49 991.600 5.4 82 2.5         104.63
2018-Mar-04 02:01:47 990.800 5.2 83 2.5         104.63
2018-Mar-04 03:04:41 990.300 5.1 83 2.4         104.63
2018-Mar-04 04:04:08 989.700 6.2 81 3.2         104.63
2018-Mar-04 05:01:48 989.200 6.3 81 3.3         104.63
2018-Mar-04 06:01:47 988.700 6.4 79 3.0         104.63
2018-Mar-04 07:01:49 988.800 5.9 80 2.7         104.63
2018-Mar-04 08:01:48 989.000 6.6 82 3.7         104.63
2018-Mar-04 09:01:32 988.900 6.5 83 3.8         104.63
2018-Mar-04 10:01:47 988.800 7.4 82 4.5         104.63
2018-Mar-04 11:01:48 989.200 8.1 80 4.9         104.63
2018-Mar-04 12:01:50 989.600 9.4 79 5.9         104.63
2018-Mar-04 13:01:43 990.300 10.9 67 5.0 1.4 NNW     104.63
2018-Mar-04 14:01:49 989.800 10.6 68 4.9         104.63
2018-Mar-04 15:01:46 990.000 10.4 68 4.8         104.63
2018-Mar-04 16:01:53 990.500 10.8 68 5.1         104.63
2018-Mar-04 17:01:48 991.100 9.3 71 4.3         104.63
2018-Mar-04 18:01:42 991.800 7.9 73 3.4         104.63
2018-Mar-04 19:01:48 991.800 7.5 71 2.6         104.63
2018-Mar-04 20:01:55 992.000 6.9 69 1.6         104.63
2018-Mar-04 21:01:42 992.000 6.9 70 1.8 1.7 N     104.63
2018-Mar-04 22:01:35 991.300 6.5 70 1.4         104.63
2018-Mar-04 23:01:40 991.100 6.5 70 1.4         104.63

Temperatura Máxima:10°    Temperatura Mínima:
Presión Máxima:992.000 Hpa    Presión Mínima:988.700 Hpa


Volver